createdAt,value
2023-03-17T00:06:49.017Z,9.94
2023-03-17T00:16:49.683Z,9.98
2023-03-17T00:27:03.874Z,10.00
2023-03-17T00:37:03.781Z,9.98
2023-03-17T00:47:03.770Z,9.92
2023-03-17T00:57:03.867Z,9.80
2023-03-17T01:07:04.476Z,9.68
2023-03-17T01:17:05.577Z,9.64
2023-03-17T01:27:06.314Z,9.64
2023-03-17T01:37:07.846Z,9.63
2023-03-17T01:47:09.209Z,9.61
2023-03-17T01:57:10.642Z,9.60
2023-03-17T02:07:13.974Z,9.58
2023-03-17T02:17:16.123Z,9.57
2023-03-17T02:27:15.874Z,9.54
2023-03-17T02:37:15.918Z,9.50
2023-03-17T02:47:15.951Z,9.42
2023-03-17T02:57:16.397Z,9.30
2023-03-17T03:07:16.833Z,9.15
2023-03-17T03:17:16.917Z,9.00
2023-03-17T03:27:17.335Z,8.89
2023-03-17T03:37:17.920Z,8.82
2023-03-17T03:47:17.985Z,8.78
2023-03-17T03:57:17.965Z,8.76
2023-03-17T04:07:17.980Z,8.73
2023-03-17T04:17:17.979Z,8.66
2023-03-17T04:27:18.314Z,8.57
2023-03-17T04:37:17.984Z,8.53
2023-03-17T04:47:18.053Z,8.49
2023-03-17T04:57:18.069Z,8.46
2023-03-17T05:07:17.992Z,8.47
2023-03-17T05:17:18.079Z,8.50
2023-03-17T05:27:18.131Z,8.53
2023-03-17T05:37:18.094Z,8.59
2023-03-17T05:47:18.077Z,8.63
2023-03-17T05:57:18.094Z,8.69
2023-03-17T06:07:18.120Z,8.79
2023-03-17T06:17:18.146Z,9.00
2023-03-17T06:27:18.139Z,9.34
2023-03-17T06:37:19.022Z,9.79
2023-03-17T06:47:19.416Z,10.33
2023-03-17T06:57:19.179Z,10.91
2023-03-17T07:07:20.357Z,11.44
2023-03-17T07:17:20.171Z,11.90
2023-03-17T07:27:22.929Z,12.36
2023-03-17T07:37:23.298Z,12.87
2023-03-17T07:47:23.573Z,13.42
2023-03-17T07:57:23.364Z,14.03
2023-03-17T08:07:23.219Z,14.74
2023-03-17T08:17:25.696Z,15.42
2023-03-17T08:27:26.363Z,16.11
2023-03-17T08:37:26.273Z,17.00
2023-03-17T08:47:26.936Z,17.70
2023-03-17T08:57:27.738Z,18.07
2023-03-17T09:07:28.321Z,18.34
2023-03-17T09:17:28.404Z,19.16
2023-03-17T09:27:28.410Z,20.47
2023-03-17T09:37:28.437Z,21.33
2023-03-17T09:47:28.387Z,21.77
2023-03-17T09:57:28.423Z,22.04
2023-03-17T10:07:28.510Z,22.17
2023-03-17T10:17:28.504Z,22.22
2023-03-17T10:27:28.552Z,22.13
2023-03-17T10:37:30.412Z,21.90
2023-03-17T10:47:31.176Z,21.85
2023-03-17T10:57:31.543Z,21.90
2023-03-17T11:07:31.921Z,21.80
2023-03-17T11:17:32.570Z,21.42
2023-03-17T11:27:32.945Z,20.96
2023-03-17T11:37:33.602Z,20.56
2023-03-17T11:47:33.582Z,20.22
2023-03-17T11:57:33.697Z,20.14
2023-03-17T12:07:33.661Z,20.38
2023-03-17T12:17:33.660Z,20.79
2023-03-17T12:27:33.579Z,21.38
2023-03-17T12:37:33.601Z,21.92
2023-03-17T12:47:33.575Z,22.15
2023-03-17T12:57:33.608Z,22.22
2023-03-17T13:07:33.760Z,22.30
2023-03-17T13:17:34.343Z,22.32
2023-03-17T13:27:34.798Z,22.33
2023-03-17T13:37:35.238Z,22.38
2023-03-17T13:47:36.097Z,22.36
2023-03-17T13:57:35.703Z,22.19
2023-03-17T14:07:35.919Z,21.94
2023-03-17T14:17:35.769Z,21.71
2023-03-17T14:27:37.453Z,21.57
2023-03-17T14:37:37.836Z,21.47
2023-03-17T14:47:37.832Z,21.39
2023-03-17T14:57:38.189Z,21.27
2023-03-17T15:07:38.013Z,21.06
2023-03-17T15:17:37.899Z,20.76
2023-03-17T15:27:37.841Z,20.49
2023-03-17T15:37:37.855Z,20.21
2023-03-17T15:47:39.895Z,19.88
2023-03-17T15:57:39.960Z,19.55
2023-03-17T16:07:43.370Z,19.43
2023-03-17T16:17:43.939Z,19.39
2023-03-17T16:27:44.004Z,19.04
2023-03-17T16:37:44.038Z,18.53
2023-03-17T16:47:44.137Z,18.01
2023-03-17T16:57:44.093Z,17.49
2023-03-17T17:07:44.028Z,17.02
2023-03-17T17:17:44.205Z,16.65
2023-03-17T17:27:44.101Z,16.36
2023-03-17T17:37:44.252Z,16.09
2023-03-17T17:47:44.206Z,15.82
2023-03-17T17:57:44.105Z,15.57
2023-03-17T18:07:44.228Z,15.37
2023-03-17T18:17:44.251Z,15.21
2023-03-17T18:27:44.123Z,15.11
2023-03-17T18:37:44.163Z,15.04
2023-03-17T18:47:44.160Z,15.01
2023-03-17T18:57:44.952Z,14.96
2023-03-17T19:07:45.434Z,14.88
2023-03-17T19:17:45.186Z,14.82
2023-03-17T19:27:45.447Z,14.78
2023-03-17T19:37:45.731Z,14.76
2023-03-17T19:47:46.671Z,14.75
2023-03-17T19:57:47.338Z,14.73
2023-03-17T20:07:47.363Z,14.70
2023-03-17T20:17:47.902Z,14.65
2023-03-17T20:27:48.377Z,14.59
2023-03-17T20:37:50.214Z,14.45
2023-03-17T20:47:50.402Z,14.18
2023-03-17T20:57:51.014Z,13.80
2023-03-17T21:07:51.415Z,13.37
2023-03-17T21:17:51.997Z,13.00
2023-03-17T21:27:52.346Z,12.78
2023-03-17T21:37:53.021Z,12.68
2023-03-17T21:47:53.845Z,12.64
2023-03-17T21:57:55.802Z,12.59
2023-03-17T22:07:56.727Z,12.54
2023-03-17T22:17:57.315Z,12.51
2023-03-17T22:27:57.493Z,12.50
2023-03-17T22:37:57.479Z,12.48
2023-03-17T22:47:57.562Z,12.46
2023-03-17T22:57:57.559Z,12.45
2023-03-17T23:07:57.633Z,12.44
2023-03-17T23:17:57.651Z,12.44
2023-03-17T23:27:57.626Z,12.44
2023-03-17T23:37:57.590Z,12.47
2023-03-17T23:47:57.685Z,12.52
2023-03-17T23:57:57.595Z,12.59
